Time,TemperatureF,DewpointF,PressureIn,WindDirection,WindDirectionDegrees,WindSpeedMPH,WindSpeedGustMPH,Humidity,HourlyPrecipIn,Conditions,Clouds,dailyrainin,SoftwareType,DateUTC
2013-02-02 00:00:00,43.2,33.3,30.08,NW,319,0.0,7.0,68,0.00,,,0.00,Wunderground v.1.15,2013-02-02 07:00:00,
2013-02-02 00:10:00,42.8,33.0,30.08,NW,319,0.0,7.0,68,0.00,,,0.00,Wunderground v.1.15,2013-02-02 07:10:00,
2013-02-02 00:15:00,42.9,33.4,30.07,NW,319,0.0,7.0,69,0.00,,,0.00,Wunderground v.1.15,2013-02-02 07:15:00,
2013-02-02 00:25:00,42.6,33.5,30.07,NW,319,0.0,7.0,70,0.00,,,0.00,Wunderground v.1.15,2013-02-02 07:25:00,
2013-02-02 00:30:00,42.9,33.8,30.08,NW,319,0.0,7.0,70,0.00,,,0.00,Wunderground v.1.15,2013-02-02 07:30:00,
2013-02-02 00:40:00,42.9,33.1,30.08,NW,319,0.0,7.0,68,0.00,,,0.00,Wunderground v.1.15,2013-02-02 07:40:00,
2013-02-02 00:45:00,42.6,33.1,30.08,NW,319,0.0,7.0,69,0.00,,,0.00,Wunderground v.1.15,2013-02-02 07:45:00,
2013-02-02 00:55:00,41.9,33.2,30.08,NW,319,0.0,7.0,71,0.00,,,0.00,Wunderground v.1.15,2013-02-02 07:55:00,
2013-02-02 01:00:00,41.9,32.8,30.08,NW,319,0.0,7.0,70,0.00,,,0.00,Wunderground v.1.15,2013-02-02 08:00:00,
2013-02-02 01:10:00,42.6,33.1,30.08,NW,319,0.0,7.0,69,0.00,,,0.00,Wunderground v.1.15,2013-02-02 08:10:00,
2013-02-02 01:20:00,43.2,33.0,30.07,NW,319,0.0,7.0,67,0.00,,,0.00,Wunderground v.1.15,2013-02-02 08:20:00,
2013-02-02 01:25:00,42.9,33.1,30.07,NW,319,0.0,7.0,68,0.00,,,0.00,Wunderground v.1.15,2013-02-02 08:25:00,
2013-02-02 01:35:00,42.9,33.1,30.08,NW,319,0.0,7.0,68,0.00,,,0.00,Wunderground v.1.15,2013-02-02 08:35:00,
2013-02-02 01:40:00,42.6,32.8,30.08,NW,319,0.0,7.0,68,0.00,,,0.00,Wunderground v.1.15,2013-02-02 08:40:00,
2013-02-02 01:50:00,41.9,33.2,30.08,NW,319,0.0,7.0,71,0.00,,,0.00,Wunderground v.1.15,2013-02-02 08:50:00,
2013-02-02 01:55:00,41.9,32.8,30.08,NW,319,0.0,7.0,70,0.00,,,0.00,Wunderground v.1.15,2013-02-02 08:55:00,
2013-02-02 02:05:00,41.8,32.7,30.08,NW,319,0.0,7.0,70,0.00,,,0.00,Wunderground v.1.15,2013-02-02 09:05:00,
2013-02-02 02:15:00,42.1,32.3,30.07,NW,319,0.0,7.0,68,0.00,,,0.00,Wunderground v.1.15,2013-02-02 09:15:00,
2013-02-02 02:20:00,42.1,32.3,30.07,NW,319,0.0,7.0,68,0.00,,,0.00,Wunderground v.1.15,2013-02-02 09:20:00,
2013-02-02 02:30:00,41.5,32.1,30.07,NW,319,0.0,7.0,69,0.00,,,0.00,Wunderground v.1.15,2013-02-02 09:30:00,
2013-02-02 02:40:00,41.5,32.1,30.07,NW,319,0.0,7.0,69,0.00,,,0.00,Wunderground v.1.15,2013-02-02 09:40:00,
2013-02-02 02:45:00,41.6,32.2,30.07,NW,319,0.0,7.0,69,0.00,,,0.00,Wunderground v.1.15,2013-02-02 09:45:00,
2013-02-02 02:55:00,42.3,31.4,30.07,NW,319,0.0,7.0,65,0.00,,,0.00,Wunderground v.1.15,2013-02-02 09:55:00,
2013-02-02 03:00:00,42.8,32.2,30.07,NW,319,0.0,7.0,66,0.00,,,0.00,Wunderground v.1.15,2013-02-02 10:00:00,
2013-02-02 03:10:00,42.6,32.0,30.07,NW,319,0.0,7.0,66,0.00,,,0.00,Wunderground v.1.15,2013-02-02 10:10:00,
2013-02-02 03:15:00,42.8,32.2,30.08,NW,319,0.0,7.0,66,0.00,,,0.00,Wunderground v.1.15,2013-02-02 10:15:00,
2013-02-02 03:25:00,42.5,31.6,30.08,NW,319,0.0,7.0,65,0.00,,,0.00,Wunderground v.1.15,2013-02-02 10:25:00,
2013-02-02 03:34:00,41.5,31.4,30.09,NW,319,0.0,7.0,67,0.00,,,0.00,Wunderground v.1.15,2013-02-02 10:34:00,
2013-02-02 03:40:00,41.5,31.4,30.09,NW,319,1.0,1.0,67,0.00,,,0.00,Wunderground v.1.15,2013-02-02 10:40:00,
2013-02-02 03:45:00,41.3,31.2,30.08,NW,319,1.0,7.0,67,0.00,,,0.00,Wunderground v.1.15,2013-02-02 10:45:00,
2013-02-02 03:55:00,41.2,31.1,30.08,NW,319,0.0,7.0,67,0.00,,,0.00,Wunderground v.1.15,2013-02-02 10:55:00,
2013-02-02 04:05:00,40.6,30.9,30.08,NW,319,0.0,7.0,68,0.00,,,0.00,Wunderground v.1.15,2013-02-02 11:05:00,
2013-02-02 04:10:00,40.3,30.6,30.08,NW,319,0.0,7.0,68,0.00,,,0.00,Wunderground v.1.15,2013-02-02 11:10:00,
2013-02-02 04:15:00,39.9,30.9,30.10,NW,319,0.0,7.0,70,0.00,,,0.00,Wunderground v.1.15,2013-02-02 11:15:00,
2013-02-02 04:25:00,40.1,30.4,30.10,NW,319,0.0,7.0,68,0.00,,,0.00,Wunderground v.1.15,2013-02-02 11:25:00,
2013-02-02 04:35:00,41.5,29.8,30.09,NW,319,0.0,7.0,63,0.00,,,0.00,Wunderground v.1.15,2013-02-02 11:35:00,
2013-02-02 04:40:00,41.9,29.8,30.09,NW,318,1.0,7.0,62,0.00,,,0.00,Wunderground v.1.15,2013-02-02 11:40:00,
2013-02-02 04:50:00,42.2,30.1,30.09,SE,141,2.0,7.0,62,0.00,,,0.00,Wunderground v.1.15,2013-02-02 11:50:00,
2013-02-02 04:55:00,42.2,30.5,30.09,SE,143,2.0,7.0,63,0.00,,,0.00,Wunderground v.1.15,2013-02-02 11:55:00,
2013-02-02 05:05:00,42.3,30.2,30.08,SSE,162,1.0,7.0,62,0.00,,,0.00,Wunderground v.1.15,2013-02-02 12:05:00,
2013-02-02 05:10:00,42.5,30.0,30.08,SSE,165,1.0,1.0,61,0.00,,,0.00,Wunderground v.1.15,2013-02-02 12:10:00,
2013-02-02 05:20:00,43.2,29.8,30.09,SSE,168,1.0,1.0,59,0.00,,,0.00,Wunderground v.1.15,2013-02-02 12:20:00,
2013-02-02 05:30:00,43.5,30.1,30.09,SSE,168,0.0,7.0,59,0.00,,,0.00,Wunderground v.1.15,2013-02-02 12:30:00,
2013-02-02 05:35:00,43.1,29.7,30.09,SSE,168,0.0,7.0,59,0.00,,,0.00,Wunderground v.1.15,2013-02-02 12:35:00,
2013-02-02 05:40:00,42.5,30.0,30.09,SSE,168,0.0,7.0,61,0.00,,,0.00,Wunderground v.1.15,2013-02-02 12:40:00,
2013-02-02 05:50:00,41.2,29.9,30.10,SSE,162,0.0,7.0,64,0.00,,,0.00,Wunderground v.1.15,2013-02-02 12:50:00,
2013-02-02 06:00:00,40.6,30.1,30.11,ESE,112,1.0,7.0,66,0.00,,,0.00,Wunderground v.1.15,2013-02-02 13:00:00,
2013-02-02 06:10:00,40.1,30.0,30.11,ESE,109,0.0,7.0,67,0.00,,,0.00,Wunderground v.1.15,2013-02-02 13:10:00,
2013-02-02 06:15:00,39.9,29.5,30.12,SE,126,1.0,7.0,66,0.00,,,0.00,Wunderground v.1.15,2013-02-02 13:15:00,
2013-02-02 06:25:00,40.5,29.3,30.12,SSE,147,1.0,7.0,64,0.00,,,0.00,Wunderground v.1.15,2013-02-02 13:25:00,
2013-02-02 06:35:00,40.6,29.4,30.13,SE,145,1.0,7.0,64,0.00,,,0.00,Wunderground v.1.15,2013-02-02 13:35:00,
2013-02-02 06:40:00,40.6,29.4,30.13,SSE,147,0.0,7.0,64,0.00,,,0.00,Wunderground v.1.15,2013-02-02 13:40:00,
2013-02-02 06:50:00,40.6,29.4,30.13,SSE,147,1.0,1.0,64,0.00,,,0.00,Wunderground v.1.15,2013-02-02 13:50:00,
2013-02-02 06:55:00,40.5,29.3,30.13,SSE,147,1.0,7.0,64,0.00,,,0.00,Wunderground v.1.15,2013-02-02 13:55:00,
2013-02-02 07:05:00,39.9,29.5,30.14,SE,145,0.0,7.0,66,0.00,,,0.00,Wunderground v.1.15,2013-02-02 14:05:00,
2013-02-02 07:15:00,39.8,29.7,30.15,SE,145,0.0,7.0,67,0.00,,,0.00,Wunderground v.1.15,2013-02-02 14:15:00,
2013-02-02 07:25:00,39.6,30.3,30.15,SE,145,0.0,7.0,69,0.00,,,0.00,Wunderground v.1.15,2013-02-02 14:25:00,
2013-02-02 07:35:00,39.6,29.5,30.15,SSE,147,0.0,7.0,67,0.00,,,0.00,Wunderground v.1.15,2013-02-02 14:35:00,
2013-02-02 07:40:00,39.8,29.7,30.15,SE,145,0.0,7.0,67,0.00,,,0.00,Wunderground v.1.15,2013-02-02 14:40:00,
2013-02-02 07:50:00,41.3,31.2,30.15,SE,145,0.0,7.0,67,0.00,,,0.00,Wunderground v.1.15,2013-02-02 14:50:00,
2013-02-02 08:00:00,42.3,29.8,30.15,SE,145,0.0,7.0,61,0.00,,,0.00,Wunderground v.1.15,2013-02-02 15:00:00,
2013-02-02 08:10:00,44.2,29.9,30.15,SE,144,1.0,1.0,57,0.00,,,0.00,Wunderground v.1.15,2013-02-02 15:10:00,
2013-02-02 08:15:00,44.8,29.6,30.15,SE,144,0.0,7.0,55,0.00,,,0.00,Wunderground v.1.15,2013-02-02 15:15:00,
2013-02-02 08:25:00,46.8,29.1,30.15,SE,143,1.0,7.0,50,0.00,,,0.00,Wunderground v.1.15,2013-02-02 15:25:00,
2013-02-02 08:35:00,46.7,29.5,30.15,ESE,114,1.0,7.0,51,0.00,,,0.00,Wunderground v.1.15,2013-02-02 15:35:00,
2013-02-02 08:40:00,46.7,29.5,30.15,ESE,113,1.0,1.0,51,0.00,,,0.00,Wunderground v.1.15,2013-02-02 15:40:00,
2013-02-02 08:50:00,47.3,30.1,30.15,ESE,102,0.0,7.0,51,0.00,,,0.00,Wunderground v.1.15,2013-02-02 15:50:00,
2013-02-02 09:00:00,48.2,29.9,30.15,East,96,1.0,1.0,49,0.00,,,0.00,Wunderground v.1.15,2013-02-02 16:00:00,
2013-02-02 09:10:00,49.4,28.4,30.15,East,100,0.0,7.0,44,0.00,,,0.00,Wunderground v.1.15,2013-02-02 16:10:00,
2013-02-02 09:20:00,50.4,29.3,30.16,East,95,1.0,7.0,44,0.00,,,0.00,Wunderground v.1.15,2013-02-02 16:20:00,
2013-02-02 09:29:00,51.3,29.5,30.16,ESE,114,1.0,1.0,43,0.00,,,0.00,Wunderground v.1.15,2013-02-02 16:29:00,
2013-02-02 09:35:00,51.3,29.0,30.16,ESE,103,0.0,2.0,42,0.00,,,0.00,Wunderground v.1.15,2013-02-02 16:35:00,
2013-02-02 09:40:00,51.7,29.9,30.16,East,95,0.0,7.0,43,0.00,,,0.00,Wunderground v.1.15,2013-02-02 16:40:00,
2013-02-02 09:50:00,52.3,29.9,30.16,East,97,0.0,7.0,42,0.00,,,0.00,Wunderground v.1.15,2013-02-02 16:50:00,
2013-02-02 10:00:00,53.9,28.8,30.16,SSE,162,0.0,7.0,38,0.00,,,0.00,Wunderground v.1.15,2013-02-02 17:00:00,
2013-02-02 10:10:00,55.7,27.0,30.16,SE,145,1.0,1.0,33,0.00,,,0.00,Wunderground v.1.15,2013-02-02 17:10:00,
2013-02-02 10:15:00,56.9,26.5,30.15,SE,143,0.0,7.0,31,0.00,,,0.00,Wunderground v.1.15,2013-02-02 17:15:00,
2013-02-02 10:25:00,59.6,26.4,30.15,SE,140,0.0,7.0,28,0.00,,,0.00,Wunderground v.1.15,2013-02-02 17:25:00,
2013-02-02 10:35:00,60.5,27.2,30.14,East,99,0.0,7.0,28,0.00,,,0.00,Wunderground v.1.15,2013-02-02 17:35:00,
2013-02-02 10:40:00,60.5,26.3,30.14,East,100,0.0,7.0,27,0.00,,,0.00,Wunderground v.1.15,2013-02-02 17:40:00,
2013-02-02 10:50:00,61.5,27.2,30.14,ESE,114,0.0,7.0,27,0.00,,,0.00,Wunderground v.1.15,2013-02-02 17:50:00,
2013-02-02 11:00:00,61.5,26.3,30.13,East,95,0.0,7.0,26,0.00,,,0.00,Wunderground v.1.15,2013-02-02 18:00:00,
2013-02-02 11:10:00,63.5,27.0,30.13,East,95,0.0,7.0,25,0.00,,,0.00,Wunderground v.1.15,2013-02-02 18:10:00,
2013-02-02 11:15:00,64.0,27.4,30.13,ESE,113,0.0,7.0,25,0.00,,,0.00,Wunderground v.1.15,2013-02-02 18:15:00,
2013-02-02 11:25:00,64.3,28.7,30.13,ENE,75,0.0,7.0,26,0.00,,,0.00,Wunderground v.1.15,2013-02-02 18:25:00,
2013-02-02 11:35:00,64.5,27.9,30.12,ESE,102,0.0,7.0,25,0.00,,,0.00,Wunderground v.1.15,2013-02-02 18:35:00,
2013-02-02 11:45:00,64.7,28.0,30.11,East,80,0.0,7.0,25,0.00,,,0.00,Wunderground v.1.15,2013-02-02 18:45:00,
2013-02-02 11:55:00,65.6,27.8,30.11,East,79,0.0,7.0,24,0.00,,,0.00,Wunderground v.1.15,2013-02-02 18:55:00,
2013-02-02 12:00:00,66.1,28.2,30.10,East,79,0.0,7.0,24,0.00,,,0.00,Wunderground v.1.15,2013-02-02 19:00:00,
2013-02-02 12:10:00,66.9,27.9,30.10,East,79,0.0,7.0,23,0.00,,,0.00,Wunderground v.1.15,2013-02-02 19:10:00,
2013-02-02 12:20:00,67.6,27.4,30.09,East,79,0.0,7.0,22,0.00,,,0.00,Wunderground v.1.15,2013-02-02 19:20:00,
2013-02-02 12:30:00,68.9,26.1,30.07,East,79,0.0,7.0,20,0.00,,,0.00,Wunderground v.1.15,2013-02-02 19:30:00,
2013-02-02 12:35:00,69.4,27.7,30.07,ENE,78,0.0,7.0,21,0.00,,,0.00,Wunderground v.1.15,2013-02-02 19:35:00,
2013-02-02 12:45:00,69.9,27.0,30.05,NE,48,0.0,7.0,20,0.00,,,0.00,Wunderground v.1.15,2013-02-02 19:45:00,
2013-02-02 12:55:00,70.6,25.0,30.05,NE,45,0.0,7.0,18,0.00,,,0.00,Wunderground v.1.15,2013-02-02 19:55:00,
2013-02-02 13:00:00,71.1,25.4,30.04,North,10,0.0,7.0,18,0.00,,,0.00,Wunderground v.1.15,2013-02-02 20:00:00,
2013-02-02 13:10:00,73.0,24.1,30.04,North,10,0.0,7.0,16,0.00,,,0.00,Wunderground v.1.15,2013-02-02 20:10:00,
2013-02-02 13:20:00,73.3,24.4,30.02,North,0,0.0,7.0,16,0.00,,,0.00,Wunderground v.1.15,2013-02-02 20:20:00,
2013-02-02 13:25:00,74.0,24.9,30.02,North,1,0.0,7.0,16,0.00,,,0.00,Wunderground v.1.15,2013-02-02 20:25:00,
2013-02-02 13:35:00,74.4,23.7,30.01,North,354,0.0,7.0,15,0.00,,,0.00,Wunderground v.1.15,2013-02-02 20:35:00,
2013-02-02 13:45:00,74.4,23.7,30.00,North,10,0.0,7.0,15,0.00,,,0.00,Wunderground v.1.15,2013-02-02 20:45:00,
2013-02-02 13:50:00,74.7,22.3,30.00,NNE,16,0.0,7.0,14,0.00,,,0.00,Wunderground v.1.15,2013-02-02 20:50:00,
2013-02-02 14:00:00,75.3,21.0,30.00,North,354,1.0,1.0,13,0.00,,,0.00,Wunderground v.1.15,2013-02-02 21:00:00,
2013-02-02 14:10:00,75.1,20.9,30.00,North,7,1.0,1.0,13,0.00,,,0.00,Wunderground v.1.15,2013-02-02 21:10:00,
2013-02-02 14:15:00,76.0,21.6,29.99,North,7,0.0,7.0,13,0.00,,,0.00,Wunderground v.1.15,2013-02-02 21:15:00,
2013-02-02 14:25:00,77.2,22.5,29.99,SW,219,0.0,7.0,13,0.00,,,0.00,Wunderground v.1.15,2013-02-02 21:25:00,
2013-02-02 14:30:00,77.6,22.8,29.98,SW,223,0.0,7.0,13,0.00,,,0.00,Wunderground v.1.15,2013-02-02 21:30:00,
2013-02-02 14:40:00,77.4,22.7,29.98,North,6,0.0,7.0,13,0.00,,,0.00,Wunderground v.1.15,2013-02-02 21:40:00,
2013-02-02 14:50:00,77.9,23.1,29.97,NNW,339,0.0,7.0,13,0.00,,,0.00,Wunderground v.1.15,2013-02-02 21:50:00,
2013-02-02 14:55:00,78.3,23.4,29.97,NNW,335,0.0,7.0,13,0.00,,,0.00,Wunderground v.1.15,2013-02-02 21:55:00,
2013-02-02 15:05:00,76.3,23.6,29.97,North,354,2.0,7.0,14,0.00,,,0.00,Wunderground v.1.15,2013-02-02 22:05:00,
2013-02-02 15:10:00,75.4,21.1,29.97,North,1,3.0,7.0,13,0.00,,,0.00,Wunderground v.1.15,2013-02-02 22:10:00,
2013-02-02 15:20:00,74.9,24.1,29.97,NNW,343,2.0,2.0,15,0.00,,,0.00,Wunderground v.1.15,2013-02-02 22:20:00,
2013-02-02 15:25:00,74.4,25.2,29.97,North,352,3.0,3.0,16,0.00,,,0.00,Wunderground v.1.15,2013-02-02 22:25:00,
2013-02-02 15:35:00,74.4,25.2,29.97,NNW,330,2.0,7.0,16,0.00,,,0.00,Wunderground v.1.15,2013-02-02 22:35:00,
2013-02-02 15:45:00,74.2,26.5,29.97,North,353,2.0,8.0,17,0.00,,,0.00,Wunderground v.1.15,2013-02-02 22:45:00,
2013-02-02 15:50:00,74.2,27.9,29.97,NW,316,3.0,3.0,18,0.00,,,0.00,Wunderground v.1.15,2013-02-02 22:50:00,
2013-02-02 16:00:00,74.4,26.7,29.97,NNW,339,2.0,2.0,17,0.00,,,0.00,Wunderground v.1.15,2013-02-02 23:00:00,
2013-02-02 16:05:00,74.6,25.4,29.97,North,0,2.0,7.0,16,0.00,,,0.00,Wunderground v.1.15,2013-02-02 23:05:00,
2013-02-02 16:15:00,74.0,24.9,29.96,NNW,335,2.0,5.0,16,0.00,,,0.00,Wunderground v.1.15,2013-02-02 23:15:00,
2013-02-02 16:20:00,73.9,26.3,29.96,NW,311,2.0,8.0,17,0.00,,,0.00,Wunderground v.1.15,2013-02-02 23:20:00,
2013-02-02 16:30:00,73.9,26.3,29.97,NW,319,2.0,7.0,17,0.00,,,0.00,Wunderground v.1.15,2013-02-02 23:30:00,
2013-02-02 16:35:00,73.7,24.7,29.97,NNW,329,2.0,7.0,16,0.00,,,0.00,Wunderground v.1.15,2013-02-02 23:35:00,
2013-02-02 16:45:00,73.2,28.4,29.97,NW,318,2.0,5.0,19,0.00,,,0.00,Wunderground v.1.15,2013-02-02 23:45:00,
2013-02-02 16:55:00,72.7,28.0,29.97,NNW,335,2.0,7.0,19,0.00,,,0.00,Wunderground v.1.15,2013-02-02 23:55:00,
2013-02-02 17:00:00,72.3,27.7,29.97,NNW,328,2.0,2.0,19,0.00,,,0.00,Wunderground v.1.15,2013-02-03 00:00:00,
2013-02-02 17:10:00,71.1,26.7,29.97,NNW,332,3.0,7.0,19,0.00,,,0.00,Wunderground v.1.15,2013-02-03 00:10:00,
2013-02-02 17:20:00,70.3,27.3,29.97,North,359,2.0,7.0,20,0.00,,,0.00,Wunderground v.1.15,2013-02-03 00:20:00,
2013-02-02 17:25:00,69.8,28.1,29.97,NW,326,2.0,7.0,21,0.00,,,0.00,Wunderground v.1.15,2013-02-03 00:25:00,
2013-02-02 17:35:00,68.9,29.5,29.97,NW,313,2.0,7.0,23,0.00,,,0.00,Wunderground v.1.15,2013-02-03 00:35:00,
2013-02-02 17:45:00,67.8,33.5,29.98,NNW,339,3.0,7.0,28,0.00,,,0.00,Wunderground v.1.15,2013-02-03 00:45:00,
2013-02-02 17:50:00,67.1,32.0,29.98,NW,312,3.0,3.0,27,0.00,,,0.00,Wunderground v.1.15,2013-02-03 00:50:00,
2013-02-02 18:00:00,66.0,31.9,29.98,NW,318,4.0,4.0,28,0.00,,,0.00,Wunderground v.1.15,2013-02-03 01:00:00,
2013-02-02 18:10:00,65.2,30.3,29.98,NW,304,4.0,7.0,27,0.00,,,0.00,Wunderground v.1.15,2013-02-03 01:10:00,
2013-02-02 18:15:00,64.7,31.7,30.00,NW,306,3.0,7.0,29,0.00,,,0.00,Wunderground v.1.15,2013-02-03 01:15:00,
2013-02-02 18:25:00,64.2,32.1,30.00,NW,308,3.0,7.0,30,0.00,,,0.00,Wunderground v.1.15,2013-02-03 01:25:00,
2013-02-02 18:35:00,63.5,33.1,30.00,WNW,295,3.0,7.0,32,0.00,,,0.00,Wunderground v.1.15,2013-02-03 01:35:00,
2013-02-02 18:45:00,63.2,33.6,30.00,NW,304,4.0,7.0,33,0.00,,,0.00,Wunderground v.1.15,2013-02-03 01:45:00,
2013-02-02 18:55:00,62.9,34.8,30.00,WNW,299,4.0,7.0,35,0.00,,,0.00,Wunderground v.1.15,2013-02-03 01:55:00,
2013-02-02 19:00:00,62.6,33.8,30.01,NW,306,3.0,7.0,34,0.00,,,0.00,Wunderground v.1.15,2013-02-03 02:00:00,
2013-02-02 19:09:00,62.3,35.7,30.01,NW,305,3.0,7.0,37,0.00,,,0.00,Wunderground v.1.15,2013-02-03 02:09:00,
2013-02-02 19:15:00,62.3,35.0,30.01,NW,308,3.0,8.0,36,0.00,,,0.00,Wunderground v.1.15,2013-02-03 02:15:00,
2013-02-02 19:25:00,62.3,35.7,30.01,NW,308,3.0,7.0,37,0.00,,,0.00,Wunderground v.1.15,2013-02-03 02:25:00,
2013-02-02 19:30:00,62.0,36.7,30.01,NW,309,3.0,7.0,39,0.00,,,0.00,Wunderground v.1.15,2013-02-03 02:30:00,
2013-02-02 19:40:00,62.0,36.7,30.01,West,280,3.0,3.0,39,0.00,,,0.00,Wunderground v.1.15,2013-02-03 02:40:00,
2013-02-02 19:50:00,61.6,37.7,30.01,WNW,301,2.0,2.0,41,0.00,,,0.00,Wunderground v.1.15,2013-02-03 02:50:00,
2013-02-02 20:00:00,60.7,37.5,30.01,WNW,301,0.0,7.0,42,0.00,,,0.00,Wunderground v.1.15,2013-02-03 03:00:00,
2013-02-02 20:05:00,60.1,36.3,30.01,WNW,301,0.0,7.0,41,0.00,,,0.00,Wunderground v.1.15,2013-02-03 03:05:00,
2013-02-02 20:15:00,59.5,37.0,30.00,WNW,301,0.0,7.0,43,0.00,,,0.00,Wunderground v.1.15,2013-02-03 03:15:00,
2013-02-02 20:25:00,59.5,37.6,30.00,WNW,301,0.0,7.0,44,0.00,,,0.00,Wunderground v.1.15,2013-02-03 03:25:00,
2013-02-02 20:34:00,59.0,37.7,30.01,WNW,301,0.0,7.0,45,0.00,,,0.00,Wunderground v.1.15,2013-02-03 03:34:00,
2013-02-02 20:40:00,58.9,38.7,30.01,WNW,301,0.0,7.0,47,0.00,,,0.00,Wunderground v.1.15,2013-02-03 03:40:00,
2013-02-02 20:50:00,58.4,39.3,30.01,WNW,301,0.0,7.0,49,0.00,,,0.00,Wunderground v.1.15,2013-02-03 03:50:00,
2013-02-02 20:55:00,58.4,37.7,30.01,WNW,301,0.0,7.0,46,0.00,,,0.00,Wunderground v.1.15,2013-02-03 03:55:00,
2013-02-02 21:05:00,57.6,35.8,30.02,WNW,282,1.0,7.0,44,0.00,,,0.00,Wunderground v.1.15,2013-02-03 04:05:00,
2013-02-02 21:15:00,57.2,36.0,30.01,WNW,282,0.0,7.0,45,0.00,,,0.00,Wunderground v.1.15,2013-02-03 04:15:00,
2013-02-02 21:20:00,57.3,35.0,30.01,WNW,282,0.0,7.0,43,0.00,,,0.00,Wunderground v.1.15,2013-02-03 04:20:00,
2013-02-02 21:30:00,56.9,35.8,30.00,WNW,282,0.0,7.0,45,0.00,,,0.00,Wunderground v.1.15,2013-02-03 04:30:00,
2013-02-02 21:40:00,56.5,36.5,30.00,WNW,282,0.0,7.0,47,0.00,,,0.00,Wunderground v.1.15,2013-02-03 04:40:00,
2013-02-02 21:50:00,55.9,35.9,30.01,WNW,282,0.0,7.0,47,0.00,,,0.00,Wunderground v.1.15,2013-02-03 04:50:00,
2013-02-02 21:55:00,55.6,36.2,30.01,WNW,282,0.0,7.0,48,0.00,,,0.00,Wunderground v.1.15,2013-02-03 04:55:00,
2013-02-02 22:05:00,55.0,36.2,30.01,WNW,282,0.0,7.0,49,0.00,,,0.00,Wunderground v.1.15,2013-02-03 05:05:00,
2013-02-02 22:15:00,54.2,36.9,30.00,WNW,282,0.0,7.0,52,0.00,,,0.00,Wunderground v.1.15,2013-02-03 05:15:00,
2013-02-02 22:20:00,53.9,36.7,30.00,WNW,282,0.0,7.0,52,0.00,,,0.00,Wunderground v.1.15,2013-02-03 05:20:00,
2013-02-02 22:25:00,53.9,36.2,30.00,WNW,282,0.0,7.0,51,0.00,,,0.00,Wunderground v.1.15,2013-02-03 05:25:00,
2013-02-02 22:35:00,53.8,36.1,30.00,WNW,282,0.0,7.0,51,0.00,,,0.00,Wunderground v.1.15,2013-02-03 05:35:00,
2013-02-02 22:45:00,53.5,36.8,29.99,WNW,282,0.0,7.0,53,0.00,,,0.00,Wunderground v.1.15,2013-02-03 05:45:00,
2013-02-02 22:50:00,53.3,36.6,29.99,WNW,282,0.0,7.0,53,0.00,,,0.00,Wunderground v.1.15,2013-02-03 05:50:00,
2013-02-02 23:00:00,53.1,36.4,30.00,WNW,282,0.0,7.0,53,0.00,,,0.00,Wunderground v.1.15,2013-02-03 06:00:00,
2013-02-02 23:10:00,52.9,37.6,30.00,WNW,282,0.0,7.0,56,0.00,,,0.00,Wunderground v.1.15,2013-02-03 06:10:00,
2013-02-02 23:20:00,52.9,37.6,29.98,WNW,282,0.0,7.0,56,0.00,,,0.00,Wunderground v.1.15,2013-02-03 06:20:00,
2013-02-02 23:25:00,52.9,38.1,29.98,WNW,282,0.0,7.0,57,0.00,,,0.00,Wunderground v.1.15,2013-02-03 06:25:00,
2013-02-02 23:35:00,53.2,37.4,29.99,WNW,282,0.0,7.0,55,0.00,,,0.00,Wunderground v.1.15,2013-02-03 06:35:00,
2013-02-02 23:45:00,53.3,38.4,29.99,WNW,282,0.0,7.0,57,0.00,,,0.00,Wunderground v.1.15,2013-02-03 06:45:00,
2013-02-02 23:50:00,53.3,38.4,29.99,WNW,282,0.0,7.0,57,0.00,,,0.00,Wunderground v.1.15,2013-02-03 06:50:00,